createdAt,value
2019-02-03T00:00:05.358Z,966.24
2019-02-03T00:01:04.994Z,966.18
2019-02-03T00:02:04.504Z,966.07
2019-02-03T00:03:05.585Z,966.13
2019-02-03T00:04:05.013Z,966.27
2019-02-03T00:05:04.986Z,966.19
2019-02-03T00:06:05.000Z,966.19
2019-02-03T00:07:04.568Z,966.11
2019-02-03T00:08:05.176Z,966.16
2019-02-03T00:09:04.618Z,966.36
2019-02-03T00:10:04.711Z,966.19
2019-02-03T00:11:05.232Z,966.25
2019-02-03T00:12:05.255Z,966.27
2019-02-03T00:13:04.642Z,966.30
2019-02-03T00:14:04.871Z,966.22
2019-02-03T00:15:04.973Z,966.36
2019-02-03T00:16:05.531Z,966.30
2019-02-03T00:17:05.455Z,966.41
2019-02-03T00:18:05.433Z,966.30
2019-02-03T00:19:06.034Z,966.38
2019-02-03T00:20:04.531Z,966.52
2019-02-03T00:21:04.762Z,966.47
2019-02-03T00:22:04.704Z,966.38
2019-02-03T00:23:04.866Z,966.47
2019-02-03T00:24:04.993Z,966.33
2019-02-03T00:25:04.943Z,966.41
2019-02-03T00:26:05.052Z,966.47
2019-02-03T00:27:04.683Z,966.47
2019-02-03T00:28:04.966Z,966.50
2019-02-03T00:29:10.016Z,966.58
2019-02-03T00:30:05.329Z,966.50
2019-02-03T00:31:04.937Z,966.58
2019-02-03T00:32:04.894Z,966.66
2019-02-03T00:33:04.954Z,966.50
2019-02-03T00:34:05.204Z,966.50
2019-02-03T00:35:05.210Z,966.67
2019-02-03T00:36:05.755Z,966.64
2019-02-03T00:37:17.513Z,966.69
2019-02-03T00:38:05.427Z,966.72
2019-02-03T00:39:04.665Z,966.58
2019-02-03T00:40:05.055Z,966.61
2019-02-03T00:41:04.701Z,966.61
2019-02-03T00:42:04.956Z,966.64
2019-02-03T00:43:05.172Z,966.69
2019-02-03T00:44:05.126Z,966.58
2019-02-03T00:45:05.625Z,966.67
2019-02-03T00:46:04.965Z,966.55
2019-02-03T00:47:04.966Z,966.64
2019-02-03T00:48:05.227Z,966.67
2019-02-03T00:49:10.354Z,966.58
2019-02-03T00:50:04.959Z,966.53
2019-02-03T00:51:05.058Z,966.67
2019-02-03T00:52:05.191Z,966.67
2019-02-03T00:53:05.157Z,966.64
2019-02-03T00:54:05.493Z,966.75
2019-02-03T00:55:05.009Z,966.61
2019-02-03T00:56:05.029Z,966.67
2019-02-03T00:57:04.941Z,966.83
2019-02-03T00:58:05.235Z,966.95
2019-02-03T00:59:05.346Z,966.72
2019-02-03T01:00:04.810Z,966.81
2019-02-03T01:01:05.197Z,966.83
2019-02-03T01:02:05.248Z,966.75
2019-02-03T01:03:04.883Z,966.67
2019-02-03T01:04:05.121Z,966.58
2019-02-03T01:05:05.329Z,966.42
2019-02-03T01:06:04.625Z,966.53
2019-02-03T01:07:04.795Z,966.53
2019-02-03T01:08:05.385Z,966.48
2019-02-03T01:09:04.939Z,966.39
2019-02-03T01:10:05.464Z,966.56
2019-02-03T01:11:04.870Z,966.59
2019-02-03T01:12:05.103Z,966.53
2019-02-03T01:13:05.175Z,966.51
2019-02-03T01:14:05.138Z,966.65
2019-02-03T01:15:05.264Z,966.48
2019-02-03T01:16:05.217Z,966.51
2019-02-03T01:17:04.723Z,966.62
2019-02-03T01:18:04.909Z,966.59
2019-02-03T01:19:05.247Z,966.76
2019-02-03T01:20:05.288Z,966.84
2019-02-03T01:21:05.446Z,966.82
2019-02-03T01:22:05.477Z,966.73
2019-02-03T01:23:04.939Z,966.79
2019-02-03T01:24:05.060Z,966.68
2019-02-03T01:25:05.717Z,966.88
2019-02-03T01:26:05.135Z,966.65
2019-02-03T01:27:05.547Z,966.65
2019-02-03T01:28:05.467Z,966.68
2019-02-03T01:29:05.603Z,966.82
2019-02-03T01:30:04.647Z,966.82
2019-02-03T01:31:04.711Z,966.82
2019-02-03T01:32:10.053Z,966.91
2019-02-03T01:33:04.879Z,966.83
2019-02-03T01:34:05.038Z,966.96
2019-02-03T01:35:05.191Z,966.94
2019-02-03T01:36:05.082Z,966.94
2019-02-03T01:37:05.366Z,966.88
2019-02-03T01:38:05.345Z,966.77
2019-02-03T01:39:05.459Z,966.77
2019-02-03T01:40:04.696Z,966.66
2019-02-03T01:41:05.408Z,966.74
2019-02-03T01:42:04.630Z,966.69
2019-02-03T01:43:04.906Z,966.74
2019-02-03T01:44:04.996Z,966.61
2019-02-03T01:45:05.234Z,966.80
2019-02-03T01:46:04.498Z,966.72
2019-02-03T01:47:04.924Z,966.80
2019-02-03T01:48:05.045Z,966.64
2019-02-03T01:49:05.365Z,966.86
2019-02-03T01:50:04.743Z,966.80
2019-02-03T01:51:04.843Z,966.83
2019-02-03T01:52:05.008Z,966.94
2019-02-03T01:53:05.162Z,966.86
2019-02-03T01:54:05.182Z,967.00
2019-02-03T01:55:05.283Z,966.94
2019-02-03T01:56:05.355Z,967.02
2019-02-03T01:57:05.924Z,966.95
2019-02-03T01:58:04.508Z,967.11
2019-02-03T01:59:04.578Z,967.00
2019-02-03T02:00:04.586Z,967.11
2019-02-03T02:01:04.975Z,967.01
2019-02-03T02:02:04.599Z,967.02
2019-02-03T02:03:04.625Z,967.08
2019-02-03T02:04:06.163Z,967.19
2019-02-03T02:05:05.368Z,967.19
2019-02-03T02:06:04.686Z,967.14
2019-02-03T02:07:04.893Z,967.25
2019-02-03T02:08:05.527Z,967.28
2019-02-03T02:09:04.589Z,967.22
2019-02-03T02:10:04.612Z,967.22
2019-02-03T02:11:04.908Z,967.47
2019-02-03T02:12:05.251Z,967.28
2019-02-03T02:13:05.782Z,967.36
2019-02-03T02:14:04.944Z,967.36
2019-02-03T02:15:04.967Z,967.41
2019-02-03T02:16:05.400Z,967.44
2019-02-03T02:17:04.880Z,967.25
2019-02-03T02:18:05.109Z,967.47
2019-02-03T02:19:04.977Z,967.53
2019-02-03T02:20:05.093Z,967.50
2019-02-03T02:21:04.776Z,967.47
2019-02-03T02:22:04.722Z,967.31
2019-02-03T02:23:05.279Z,967.47
2019-02-03T02:24:05.351Z,967.50
2019-02-03T02:25:04.621Z,967.58
2019-02-03T02:26:04.692Z,967.45
2019-02-03T02:27:05.354Z,967.58
2019-02-03T02:28:05.022Z,967.64
2019-02-03T02:29:10.164Z,967.67
2019-02-03T02:30:05.791Z,967.56
2019-02-03T02:31:05.809Z,967.50
2019-02-03T02:32:05.024Z,967.67
2019-02-03T02:33:05.022Z,967.45
2019-02-03T02:34:05.419Z,967.56
2019-02-03T02:35:04.537Z,967.62
2019-02-03T02:36:04.924Z,967.67
2019-02-03T02:37:05.207Z,967.65
2019-02-03T02:38:07.809Z,967.70
2019-02-03T02:39:05.394Z,967.70
2019-02-03T02:40:13.642Z,967.73
2019-02-03T02:41:05.277Z,967.81
2019-02-03T02:42:05.555Z,967.79
2019-02-03T02:43:05.356Z,967.62
2019-02-03T02:44:04.697Z,967.70
2019-02-03T02:45:04.746Z,967.73
2019-02-03T02:46:05.009Z,967.84
2019-02-03T02:47:05.272Z,967.84
2019-02-03T02:48:05.244Z,967.93
2019-02-03T02:49:10.454Z,967.90
2019-02-03T02:50:04.856Z,967.87
2019-02-03T02:51:04.479Z,967.93
2019-02-03T02:52:04.729Z,968.04
2019-02-03T02:53:05.110Z,968.01
2019-02-03T02:54:05.185Z,968.01
2019-02-03T02:55:05.102Z,967.98
2019-02-03T02:56:05.207Z,967.98
2019-02-03T02:57:05.221Z,967.95
2019-02-03T02:58:05.247Z,968.04
2019-02-03T02:59:04.818Z,967.90
2019-02-03T03:00:04.897Z,967.98
2019-02-03T03:01:04.819Z,967.96
2019-02-03T03:02:04.885Z,967.96
2019-02-03T03:03:05.130Z,968.04
2019-02-03T03:04:05.616Z,968.01
2019-02-03T03:05:04.495Z,968.10
2019-02-03T03:06:04.736Z,968.07
2019-02-03T03:07:05.245Z,968.04
2019-02-03T03:08:19.716Z,968.04
2019-02-03T03:09:05.374Z,968.01
2019-02-03T03:10:05.041Z,968.01
2019-02-03T03:11:05.282Z,967.99
2019-02-03T03:12:05.230Z,968.04
2019-02-03T03:13:05.509Z,967.96
2019-02-03T03:14:04.805Z,968.04
2019-02-03T03:15:05.409Z,967.90
2019-02-03T03:16:05.446Z,968.07
2019-02-03T03:17:04.656Z,968.10
2019-02-03T03:18:04.691Z,968.07
2019-02-03T03:19:04.995Z,968.04
2019-02-03T03:20:05.287Z,967.88
2019-02-03T03:21:04.849Z,968.15
2019-02-03T03:22:05.529Z,968.07
2019-02-03T03:23:05.001Z,968.18
2019-02-03T03:24:05.498Z,968.04
2019-02-03T03:25:05.429Z,968.07
2019-02-03T03:26:04.596Z,967.99
2019-02-03T03:27:04.495Z,968.13
2019-02-03T03:28:05.184Z,968.21
2019-02-03T03:29:09.788Z,968.32
2019-02-03T03:30:05.236Z,967.99
2019-02-03T03:31:05.371Z,968.27
2019-02-03T03:32:04.858Z,968.35
2019-02-03T03:33:05.535Z,968.16
2019-02-03T03:34:05.054Z,968.16
2019-02-03T03:35:05.453Z,968.19
2019-02-03T03:36:04.611Z,968.27
2019-02-03T03:37:05.128Z,968.30
2019-02-03T03:38:04.672Z,968.22
2019-02-03T03:39:05.055Z,968.27
2019-02-03T03:40:05.232Z,968.25
2019-02-03T03:41:05.435Z,968.30
2019-02-03T03:42:05.550Z,968.36
2019-02-03T03:43:04.827Z,968.47
2019-02-03T03:44:05.003Z,968.47
2019-02-03T03:45:05.565Z,968.58
2019-02-03T03:46:07.134Z,968.53
2019-02-03T03:47:04.772Z,968.58
2019-02-03T03:48:04.886Z,968.47
2019-02-03T03:49:10.054Z,968.53
2019-02-03T03:50:05.802Z,968.64
2019-02-03T03:51:05.033Z,968.58
2019-02-03T03:52:04.969Z,968.58
2019-02-03T03:53:05.414Z,968.61
2019-02-03T03:54:04.826Z,968.58
2019-02-03T03:55:05.279Z,968.74
2019-02-03T03:56:05.283Z,968.69
2019-02-03T03:57:04.732Z,968.70
2019-02-03T03:58:05.079Z,968.64
2019-02-03T03:59:04.602Z,968.69
2019-02-03T04:00:04.556Z,968.83
2019-02-03T04:01:04.782Z,968.67
2019-02-03T04:02:04.775Z,968.71
2019-02-03T04:03:05.266Z,968.74
2019-02-03T04:04:04.659Z,968.85
2019-02-03T04:05:04.622Z,968.74
2019-02-03T04:06:05.436Z,968.94
2019-02-03T04:07:04.846Z,968.83
2019-02-03T04:08:05.278Z,968.88
2019-02-03T04:09:04.730Z,968.83
2019-02-03T04:10:04.842Z,968.91
2019-02-03T04:11:05.034Z,968.88
2019-02-03T04:12:05.253Z,968.88
2019-02-03T04:13:04.744Z,968.99
2019-02-03T04:14:05.533Z,968.97
2019-02-03T04:15:04.863Z,968.83
2019-02-03T04:16:05.081Z,969.11
2019-02-03T04:17:05.336Z,968.88
2019-02-03T04:18:04.646Z,968.96
2019-02-03T04:19:05.149Z,968.96
2019-02-03T04:20:05.081Z,968.85
2019-02-03T04:21:05.160Z,968.91
2019-02-03T04:22:04.998Z,968.91
2019-02-03T04:23:05.186Z,968.85
2019-02-03T04:24:05.234Z,968.99
2019-02-03T04:25:04.730Z,968.99
2019-02-03T04:26:05.138Z,968.99
2019-02-03T04:27:04.862Z,969.05
2019-02-03T04:28:04.775Z,969.02
2019-02-03T04:29:05.034Z,969.02
2019-02-03T04:30:05.802Z,969.11
2019-02-03T04:31:04.949Z,968.94
2019-02-03T04:32:05.057Z,969.02
2019-02-03T04:33:10.532Z,969.11
2019-02-03T04:34:04.911Z,969.00
2019-02-03T04:35:05.029Z,969.17
2019-02-03T04:36:05.287Z,969.00
2019-02-03T04:37:05.491Z,969.19
2019-02-03T04:38:04.715Z,969.08
2019-02-03T04:39:05.010Z,968.97
2019-02-03T04:40:05.227Z,969.11
2019-02-03T04:41:05.355Z,968.94
2019-02-03T04:42:05.507Z,969.05
2019-02-03T04:43:04.533Z,969.05
2019-02-03T04:44:04.657Z,969.08
2019-02-03T04:45:04.790Z,969.17
2019-02-03T04:46:05.497Z,968.97
2019-02-03T04:47:05.602Z,969.11
2019-02-03T04:48:04.606Z,969.05
2019-02-03T04:49:04.765Z,968.86
2019-02-03T04:50:05.316Z,968.97
2019-02-03T04:51:05.355Z,969.08
2019-02-03T04:52:05.421Z,968.97
2019-02-03T04:53:05.216Z,969.11
2019-02-03T04:54:05.203Z,968.97
2019-02-03T04:55:04.862Z,968.94
2019-02-03T04:56:05.323Z,969.11
2019-02-03T04:57:09.821Z,968.89
2019-02-03T04:58:05.376Z,969.20
2019-02-03T04:59:04.721Z,969.17
2019-02-03T05:00:04.806Z,969.11
2019-02-03T05:01:05.212Z,969.11
2019-02-03T05:02:04.863Z,969.23
2019-02-03T05:03:05.446Z,969.14
2019-02-03T05:04:04.614Z,969.17
2019-02-03T05:05:04.623Z,969.26
2019-02-03T05:06:04.699Z,969.12
2019-02-03T05:07:05.388Z,969.26
2019-02-03T05:08:05.186Z,969.26
2019-02-03T05:09:11.770Z,969.23
2019-02-03T05:10:05.331Z,969.15
2019-02-03T05:11:05.903Z,969.21
2019-02-03T05:12:05.270Z,969.21
2019-02-03T05:13:04.631Z,969.15
2019-02-03T05:14:04.691Z,969.26
2019-02-03T05:15:05.181Z,969.32
2019-02-03T05:16:05.064Z,969.07
2019-02-03T05:17:05.379Z,969.07
2019-02-03T05:18:05.528Z,969.32
2019-02-03T05:19:05.677Z,969.43
2019-02-03T05:20:05.303Z,969.32
2019-02-03T05:21:05.347Z,969.27
2019-02-03T05:22:04.484Z,969.35
2019-02-03T05:23:05.147Z,969.35
2019-02-03T05:24:05.260Z,969.33
2019-02-03T05:25:05.225Z,969.47
2019-02-03T05:26:05.070Z,969.55
2019-02-03T05:27:05.864Z,969.41
2019-02-03T05:28:05.410Z,969.41
2019-02-03T05:29:05.402Z,969.33
2019-02-03T05:30:04.607Z,969.55
2019-02-03T05:31:09.612Z,969.41
2019-02-03T05:32:05.055Z,969.38
2019-02-03T05:33:04.583Z,969.49
2019-02-03T05:34:04.730Z,969.49
2019-02-03T05:35:05.290Z,969.44
2019-02-03T05:36:04.528Z,969.58
2019-02-03T05:37:04.695Z,969.58
2019-02-03T05:38:05.114Z,969.55
2019-02-03T05:39:04.781Z,969.61
2019-02-03T05:40:04.483Z,969.49
2019-02-03T05:41:05.033Z,969.49
2019-02-03T05:42:05.275Z,969.41
2019-02-03T05:43:05.625Z,969.55
2019-02-03T05:44:05.060Z,969.55
2019-02-03T05:45:04.740Z,969.52
2019-02-03T05:46:05.389Z,969.61
2019-02-03T05:47:06.341Z,969.55
2019-02-03T05:48:04.950Z,969.38
2019-02-03T05:49:05.477Z,969.47
2019-02-03T05:50:04.847Z,969.58
2019-02-03T05:51:10.319Z,969.35
2019-02-03T05:52:04.743Z,969.52
2019-02-03T05:53:05.290Z,969.49
2019-02-03T05:54:05.295Z,969.60
2019-02-03T05:55:04.832Z,969.55
2019-02-03T05:56:04.976Z,969.52
2019-02-03T05:57:05.222Z,969.63
2019-02-03T05:58:04.626Z,969.60
2019-02-03T05:59:04.954Z,969.57
2019-02-03T06:00:05.262Z,969.66
2019-02-03T06:01:05.418Z,969.77
2019-02-03T06:02:05.458Z,969.74
2019-02-03T06:03:04.582Z,969.77
2019-02-03T06:04:04.684Z,969.71
2019-02-03T06:05:04.983Z,969.74
2019-02-03T06:06:05.149Z,969.74
2019-02-03T06:07:05.508Z,969.85
2019-02-03T06:08:04.942Z,969.85
2019-02-03T06:09:05.366Z,969.82
2019-02-03T06:10:04.743Z,969.88
2019-02-03T06:11:05.503Z,969.77
2019-02-03T06:12:04.622Z,969.82
2019-02-03T06:13:04.726Z,969.88
2019-02-03T06:14:04.720Z,969.96
2019-02-03T06:15:05.496Z,970.04
2019-02-03T06:16:04.643Z,970.12
2019-02-03T06:17:04.625Z,970.23
2019-02-03T06:18:05.298Z,970.07
2019-02-03T06:19:05.490Z,970.07
2019-02-03T06:20:04.930Z,970.09
2019-02-03T06:21:05.103Z,970.10
2019-02-03T06:22:05.123Z,970.18
2019-02-03T06:23:05.107Z,970.24
2019-02-03T06:24:05.352Z,970.29
2019-02-03T06:25:04.588Z,970.15
2019-02-03T06:26:04.674Z,970.26
2019-02-03T06:27:05.165Z,970.24
2019-02-03T06:28:05.328Z,970.45
2019-02-03T06:29:10.351Z,970.32
2019-02-03T06:30:04.858Z,970.26
2019-02-03T06:31:05.216Z,970.40
2019-02-03T06:32:05.012Z,970.29
2019-02-03T06:33:05.098Z,970.35
2019-02-03T06:34:05.117Z,970.35
2019-02-03T06:35:05.180Z,970.40
2019-02-03T06:36:05.408Z,970.53
2019-02-03T06:37:05.366Z,970.35
2019-02-03T06:38:04.507Z,970.45
2019-02-03T06:39:04.879Z,970.42
2019-02-03T06:40:05.012Z,970.48
2019-02-03T06:41:05.204Z,970.45
2019-02-03T06:42:04.738Z,970.50
2019-02-03T06:43:04.896Z,970.48
2019-02-03T06:44:04.921Z,970.48
2019-02-03T06:45:04.761Z,970.48
2019-02-03T06:46:05.208Z,970.42
2019-02-03T06:47:05.193Z,970.56
2019-02-03T06:48:04.982Z,970.50
2019-02-03T06:49:05.045Z,970.56
2019-02-03T06:50:05.235Z,970.48
2019-02-03T06:51:05.527Z,970.56
2019-02-03T06:52:05.032Z,970.62
2019-02-03T06:53:04.777Z,970.48
2019-02-03T06:54:05.150Z,970.45
2019-02-03T06:55:05.090Z,970.53
2019-02-03T06:56:05.628Z,970.59
2019-02-03T06:57:05.085Z,970.56
2019-02-03T06:58:04.804Z,970.45
2019-02-03T06:59:04.909Z,970.50
2019-02-03T07:00:04.908Z,970.50
2019-02-03T07:01:05.436Z,970.45
2019-02-03T07:02:04.738Z,970.50
2019-02-03T07:03:04.595Z,970.53
2019-02-03T07:04:05.061Z,970.62
2019-02-03T07:05:04.572Z,970.64
2019-02-03T07:06:05.122Z,970.64
2019-02-03T07:07:04.891Z,970.62
2019-02-03T07:08:04.858Z,970.70
2019-02-03T07:09:04.717Z,970.62
2019-02-03T07:10:04.777Z,970.70
2019-02-03T07:11:05.174Z,970.70
2019-02-03T07:12:05.338Z,970.65
2019-02-03T07:13:04.605Z,970.67
2019-02-03T07:14:04.621Z,970.62
2019-02-03T07:15:04.914Z,970.42
2019-02-03T07:16:05.005Z,970.56
2019-02-03T07:17:05.337Z,970.56
2019-02-03T07:18:05.595Z,970.67
2019-02-03T07:19:04.704Z,970.45
2019-02-03T07:20:04.830Z,970.54
2019-02-03T07:21:05.148Z,970.38
2019-02-03T07:22:04.590Z,970.48
2019-02-03T07:23:04.804Z,970.45
2019-02-03T07:24:04.730Z,970.53
2019-02-03T07:25:04.818Z,970.56
2019-02-03T07:26:04.804Z,970.48
2019-02-03T07:27:05.037Z,970.48
2019-02-03T07:28:05.071Z,970.48
2019-02-03T07:29:04.859Z,970.53
2019-02-03T07:30:05.067Z,970.56
2019-02-03T07:31:05.823Z,970.56
2019-02-03T07:32:04.874Z,970.45
2019-02-03T07:33:05.473Z,970.40
2019-02-03T07:34:05.495Z,970.45
2019-02-03T07:35:04.737Z,970.50
2019-02-03T07:36:07.078Z,970.62
2019-02-03T07:37:05.042Z,970.45
2019-02-03T07:38:05.436Z,970.62
2019-02-03T07:39:04.635Z,970.53
2019-02-03T07:40:13.044Z,970.56
2019-02-03T07:41:04.753Z,970.48
2019-02-03T07:42:05.102Z,970.35
2019-02-03T07:43:05.201Z,970.51
2019-02-03T07:44:05.680Z,970.62
2019-02-03T07:45:04.881Z,970.59
2019-02-03T07:46:05.247Z,970.62
2019-02-03T07:47:05.472Z,970.59
2019-02-03T07:48:10.229Z,970.51
2019-02-03T07:49:04.625Z,970.73
2019-02-03T07:50:05.260Z,970.81
2019-02-03T07:51:05.465Z,970.68
2019-02-03T07:52:04.887Z,970.84
2019-02-03T07:53:08.980Z,970.73
2019-02-03T07:54:09.090Z,970.90
2019-02-03T07:55:04.805Z,970.96
2019-02-03T07:56:04.835Z,970.93
2019-02-03T07:57:05.268Z,971.07
2019-02-03T07:58:04.728Z,971.04
2019-02-03T07:59:04.898Z,971.18
2019-02-03T08:00:05.392Z,971.12
2019-02-03T08:01:04.833Z,971.16
2019-02-03T08:02:05.057Z,971.07
2019-02-03T08:03:05.458Z,971.16
2019-02-03T08:04:05.469Z,971.32
2019-02-03T08:05:04.943Z,971.16
2019-02-03T08:06:05.404Z,971.27
2019-02-03T08:07:04.590Z,971.29
2019-02-03T08:08:04.721Z,971.32
2019-02-03T08:09:05.162Z,971.43
2019-02-03T08:10:05.109Z,971.46
2019-02-03T08:11:05.503Z,971.49
2019-02-03T08:12:04.533Z,971.60
2019-02-03T08:13:04.849Z,971.66
2019-02-03T08:14:05.012Z,971.71
2019-02-03T08:15:05.007Z,971.68
2019-02-03T08:16:05.375Z,971.93
2019-02-03T08:17:04.592Z,971.68
2019-02-03T08:18:04.770Z,971.80
2019-02-03T08:19:04.808Z,971.98
2019-02-03T08:20:04.906Z,971.87
2019-02-03T08:21:04.426Z,971.87
2019-02-03T08:22:04.843Z,971.92
2019-02-03T08:23:04.880Z,972.01
2019-02-03T08:24:05.485Z,971.71
2019-02-03T08:25:04.553Z,971.84
2019-02-03T08:26:04.677Z,971.87
2019-02-03T08:27:04.649Z,971.90
2019-02-03T08:28:05.234Z,971.77
2019-02-03T08:29:10.097Z,971.74
2019-02-03T08:30:04.548Z,971.79
2019-02-03T08:31:04.971Z,971.68
2019-02-03T08:32:04.893Z,971.74
2019-02-03T08:33:04.931Z,971.68
2019-02-03T08:34:04.792Z,971.79
2019-02-03T08:35:04.740Z,971.68
2019-02-03T08:36:05.380Z,971.80
2019-02-03T08:37:04.772Z,971.60
2019-02-03T08:38:05.057Z,971.77
2019-02-03T08:39:05.323Z,971.69
2019-02-03T08:40:05.463Z,971.84
2019-02-03T08:41:05.446Z,971.87
2019-02-03T08:42:05.592Z,971.87
2019-02-03T08:43:04.908Z,971.82
2019-02-03T08:44:05.107Z,971.84
2019-02-03T08:45:04.736Z,971.98
2019-02-03T08:46:05.163Z,971.84
2019-02-03T08:47:05.523Z,971.77
2019-02-03T08:48:05.171Z,972.04
2019-02-03T08:49:05.205Z,972.04
2019-02-03T08:50:04.594Z,971.82
2019-02-03T08:51:04.685Z,971.93
2019-02-03T08:52:05.498Z,971.90
2019-02-03T08:53:05.480Z,971.93
2019-02-03T08:54:04.546Z,971.90
2019-02-03T08:55:05.070Z,971.98
2019-02-03T08:56:10.661Z,971.87
2019-02-03T08:57:05.534Z,971.92
2019-02-03T08:58:04.550Z,971.90
2019-02-03T08:59:04.650Z,971.95
2019-02-03T09:00:04.606Z,972.03
2019-02-03T09:01:04.905Z,972.09
2019-02-03T09:02:05.072Z,972.01
2019-02-03T09:03:05.095Z,971.92
2019-02-03T09:04:04.585Z,971.92
2019-02-03T09:05:04.957Z,971.87
2019-02-03T09:06:05.333Z,971.90
2019-02-03T09:07:05.431Z,971.98
2019-02-03T09:08:04.648Z,972.06
2019-02-03T09:09:04.977Z,972.03
2019-02-03T09:10:05.447Z,972.01
2019-02-03T09:11:04.798Z,971.98
2019-02-03T09:12:04.997Z,971.95
2019-02-03T09:13:04.741Z,971.98
2019-02-03T09:14:04.907Z,972.12
2019-02-03T09:15:04.982Z,971.95
2019-02-03T09:16:04.593Z,972.12
2019-02-03T09:17:04.724Z,972.23
2019-02-03T09:18:04.876Z,972.06
2019-02-03T09:19:04.939Z,972.09
2019-02-03T09:20:05.115Z,972.03
2019-02-03T09:21:04.750Z,972.06
2019-02-03T09:22:05.209Z,972.06
2019-02-03T09:23:04.699Z,971.95
2019-02-03T09:24:04.709Z,972.06
2019-02-03T09:25:05.356Z,972.23
2019-02-03T09:26:08.913Z,972.20
2019-02-03T09:27:04.653Z,972.23
2019-02-03T09:28:04.876Z,972.12
2019-02-03T09:29:09.988Z,972.06
2019-02-03T09:30:05.500Z,972.25
2019-02-03T09:31:04.673Z,972.28
2019-02-03T09:32:04.921Z,972.20
2019-02-03T09:33:05.105Z,972.09
2019-02-03T09:34:05.233Z,972.23
2019-02-03T09:35:05.483Z,972.20
2019-02-03T09:36:05.507Z,972.31
2019-02-03T09:37:05.406Z,972.12
2019-02-03T09:38:05.452Z,972.20
2019-02-03T09:39:05.499Z,972.23
2019-02-03T09:40:04.528Z,972.20
2019-02-03T09:41:04.749Z,972.31
2019-02-03T09:42:04.996Z,972.39
2019-02-03T09:43:05.387Z,972.39
2019-02-03T09:44:04.576Z,972.45
2019-02-03T09:45:04.685Z,972.45
2019-02-03T09:46:04.861Z,972.61
2019-02-03T09:47:04.732Z,972.64
2019-02-03T09:48:05.376Z,972.55
2019-02-03T09:49:04.655Z,972.64
2019-02-03T09:50:04.948Z,972.52
2019-02-03T09:51:05.333Z,972.66
2019-02-03T09:52:05.264Z,972.64
2019-02-03T09:53:05.200Z,972.66
2019-02-03T09:54:05.328Z,972.69
2019-02-03T09:55:04.968Z,972.52
2019-02-03T09:56:05.231Z,972.63
2019-02-03T09:57:05.261Z,972.66
2019-02-03T09:58:04.494Z,972.75
2019-02-03T09:59:05.436Z,972.66
2019-02-03T10:00:05.313Z,972.55
2019-02-03T10:01:04.654Z,972.69
2019-02-03T10:02:04.756Z,972.58
2019-02-03T10:03:04.921Z,972.66
2019-02-03T10:04:10.078Z,972.77
2019-02-03T10:05:04.539Z,972.86
2019-02-03T10:06:04.947Z,972.85
2019-02-03T10:07:05.073Z,972.74
2019-02-03T10:08:05.489Z,972.80
2019-02-03T10:09:05.278Z,972.97
2019-02-03T10:10:05.415Z,972.88
2019-02-03T10:11:12.525Z,972.99
2019-02-03T10:12:05.310Z,972.91
2019-02-03T10:13:05.480Z,972.88
2019-02-03T10:14:04.901Z,973.02
2019-02-03T10:15:05.543Z,973.05
2019-02-03T10:16:04.923Z,973.02
2019-02-03T10:17:05.049Z,972.97
2019-02-03T10:18:04.616Z,972.94
2019-02-03T10:19:04.700Z,972.99
2019-02-03T10:20:04.938Z,973.05
2019-02-03T10:21:05.044Z,972.99
2019-02-03T10:22:06.364Z,973.08
2019-02-03T10:23:05.121Z,973.02
2019-02-03T10:24:05.343Z,972.91
2019-02-03T10:25:05.410Z,972.91
2019-02-03T10:26:05.428Z,973.02
2019-02-03T10:27:04.520Z,973.08
2019-02-03T10:28:05.065Z,972.97
2019-02-03T10:29:10.401Z,972.97
2019-02-03T10:30:05.023Z,973.11
2019-02-03T10:31:05.233Z,973.08
2019-02-03T10:32:05.350Z,972.99
2019-02-03T10:33:05.455Z,973.13
2019-02-03T10:34:04.745Z,973.02
2019-02-03T10:35:04.803Z,973.05
2019-02-03T10:36:05.134Z,973.13
2019-02-03T10:37:05.061Z,973.10
2019-02-03T10:38:05.247Z,973.08
2019-02-03T10:39:04.858Z,972.99
2019-02-03T10:40:05.009Z,973.08
2019-02-03T10:41:05.046Z,973.05
2019-02-03T10:42:04.613Z,973.08
2019-02-03T10:43:04.791Z,973.13
2019-02-03T10:44:05.145Z,973.19
2019-02-03T10:45:05.035Z,973.13
2019-02-03T10:46:05.222Z,973.08
2019-02-03T10:47:05.424Z,973.08
2019-02-03T10:48:04.621Z,973.10
2019-02-03T10:49:10.534Z,973.05
2019-02-03T10:50:05.012Z,973.19
2019-02-03T10:51:04.880Z,973.02
2019-02-03T10:52:04.987Z,972.99
2019-02-03T10:53:04.748Z,973.10
2019-02-03T10:54:04.774Z,973.16
2019-02-03T10:55:05.111Z,973.08
2019-02-03T10:56:05.473Z,973.19
2019-02-03T10:57:05.547Z,973.13
2019-02-03T10:58:04.686Z,973.13
2019-02-03T10:59:04.912Z,973.08
2019-02-03T11:00:18.981Z,973.10
2019-02-03T11:01:04.690Z,973.18
2019-02-03T11:02:04.792Z,973.24
2019-02-03T11:03:04.602Z,973.18
2019-02-03T11:04:04.705Z,973.18
2019-02-03T11:05:04.766Z,973.10
2019-02-03T11:06:04.730Z,973.16
2019-02-03T11:07:04.785Z,973.24
2019-02-03T11:08:05.001Z,973.16
2019-02-03T11:09:04.808Z,973.21
2019-02-03T11:10:05.005Z,973.29
2019-02-03T11:11:05.407Z,973.18
2019-02-03T11:12:04.835Z,973.18
2019-02-03T11:13:04.874Z,973.27
2019-02-03T11:14:05.369Z,973.49
2019-02-03T11:15:04.599Z,973.16
2019-02-03T11:16:04.722Z,973.21
2019-02-03T11:17:05.472Z,973.32
2019-02-03T11:18:05.260Z,973.15
2019-02-03T11:19:04.813Z,973.29
2019-02-03T11:20:04.946Z,973.27
2019-02-03T11:21:04.507Z,973.38
2019-02-03T11:22:04.979Z,973.27
2019-02-03T11:23:04.831Z,973.21
2019-02-03T11:24:05.329Z,973.35
2019-02-03T11:25:05.955Z,973.40
2019-02-03T11:26:04.886Z,973.21
2019-02-03T11:27:05.273Z,973.38
2019-02-03T11:28:05.287Z,973.46
2019-02-03T11:29:09.852Z,973.35
2019-02-03T11:30:05.189Z,973.46
2019-02-03T11:31:05.566Z,973.35
2019-02-03T11:32:05.108Z,973.29
2019-02-03T11:33:09.952Z,973.43
2019-02-03T11:34:04.707Z,973.24
2019-02-03T11:35:04.772Z,973.43
2019-02-03T11:36:05.412Z,973.49
2019-02-03T11:37:05.494Z,973.49
2019-02-03T11:38:04.622Z,973.43
2019-02-03T11:39:04.742Z,973.43
2019-02-03T11:40:04.850Z,973.56
2019-02-03T11:41:05.391Z,973.37
2019-02-03T11:42:04.600Z,973.54
2019-02-03T11:43:04.794Z,973.40
2019-02-03T11:44:04.934Z,973.43
2019-02-03T11:45:05.007Z,973.59
2019-02-03T11:46:05.491Z,973.46
2019-02-03T11:47:04.559Z,973.43
2019-02-03T11:48:05.499Z,973.56
2019-02-03T11:49:04.670Z,973.70
2019-02-03T11:50:04.681Z,973.46
2019-02-03T11:51:04.943Z,973.54
2019-02-03T11:52:04.659Z,973.51
2019-02-03T11:53:05.110Z,973.46
2019-02-03T11:54:05.134Z,973.56
2019-02-03T11:55:05.023Z,973.54
2019-02-03T11:56:05.261Z,973.64
2019-02-03T11:57:05.609Z,973.56
2019-02-03T11:58:04.843Z,973.73
2019-02-03T11:59:05.287Z,973.67
2019-02-03T12:00:05.404Z,973.56
2019-02-03T12:01:05.627Z,973.54
2019-02-03T12:02:04.684Z,973.67
2019-02-03T12:03:04.907Z,973.67
2019-02-03T12:04:04.977Z,973.49
2019-02-03T12:05:04.978Z,973.75
2019-02-03T12:06:04.748Z,973.75
2019-02-03T12:07:04.826Z,973.67
2019-02-03T12:08:05.242Z,973.72
2019-02-03T12:09:04.687Z,973.59
2019-02-03T12:10:05.193Z,973.70
2019-02-03T12:11:04.698Z,973.70
2019-02-03T12:12:04.928Z,973.81
2019-02-03T12:13:05.351Z,973.75
2019-02-03T12:14:04.875Z,973.70
2019-02-03T12:15:05.176Z,973.67
2019-02-03T12:16:05.199Z,973.59
2019-02-03T12:17:05.073Z,973.61
2019-02-03T12:18:04.732Z,973.92
2019-02-03T12:19:05.093Z,973.75
2019-02-03T12:20:04.648Z,973.70
2019-02-03T12:21:05.260Z,973.75
2019-02-03T12:22:04.884Z,973.69
2019-02-03T12:23:04.980Z,973.67
2019-02-03T12:24:05.116Z,973.75
2019-02-03T12:25:05.320Z,973.80
2019-02-03T12:26:07.416Z,973.75
2019-02-03T12:27:05.461Z,973.66
2019-02-03T12:28:05.089Z,973.83